createdAt,value
2023-01-18T00:02:26.645Z,3.55
2023-01-18T00:05:12.112Z,2.08
2023-01-18T00:07:57.450Z,2.08
2023-01-18T00:10:43.773Z,2.85
2023-01-18T00:13:28.969Z,2.15
2023-01-18T00:16:20.059Z,3.03
2023-01-18T00:19:06.723Z,2.25
2023-01-18T00:21:55.847Z,1.27
2023-01-18T00:24:40.997Z,2.30
2023-01-18T00:27:26.428Z,4.47
2023-01-18T00:30:12.664Z,3.00
2023-01-18T00:32:59.489Z,0.68
2023-01-18T00:36:04.020Z,1.38
2023-01-18T00:38:54.193Z,1.30
2023-01-18T00:41:59.842Z,1.85
2023-01-18T00:44:45.466Z,4.13
2023-01-18T00:47:30.737Z,1.73
2023-01-18T00:50:17.228Z,1.13
2023-01-18T00:53:02.846Z,3.00
2023-01-18T00:55:48.196Z,2.30
2023-01-18T00:58:33.767Z,0.63
2023-01-18T01:01:19.317Z,1.52
2023-01-18T01:04:23.462Z,1.45
2023-01-18T01:07:09.140Z,2.28
2023-01-18T01:09:54.968Z,0.68
2023-01-18T01:12:59.343Z,2.15
2023-01-18T01:16:03.531Z,1.02
2023-01-18T01:19:07.782Z,0.60
2023-01-18T01:22:11.986Z,2.25
2023-01-18T01:25:16.158Z,4.88
2023-01-18T01:28:01.865Z,0.52
2023-01-18T01:30:47.468Z,0.70
2023-01-18T01:33:34.463Z,2.60
2023-01-18T01:36:25.951Z,0.73
2023-01-18T01:39:11.457Z,1.25
2023-01-18T01:41:56.952Z,1.27
2023-01-18T01:44:50.244Z,0.55
2023-01-18T01:47:43.296Z,1.60
2023-01-18T01:50:34.997Z,1.13
2023-01-18T01:56:07.650Z,1.55
2023-01-18T01:58:56.758Z,0.93
2023-01-18T02:01:45.880Z,0.70
2023-01-18T02:04:32.446Z,0.77
2023-01-18T02:07:18.035Z,3.17
2023-01-18T02:10:04.863Z,2.33
2023-01-18T02:12:53.728Z,0.57
2023-01-18T02:15:48.936Z,1.52
2023-01-18T02:18:40.328Z,1.20
2023-01-18T02:21:40.669Z,2.83
2023-01-18T02:25:04.967Z,3.33
2023-01-18T02:28:09.265Z,0.75
2023-01-18T02:31:17.184Z,1.42
2023-01-18T02:34:34.689Z,0.68
2023-01-18T02:37:33.971Z,2.30
2023-01-18T02:40:46.593Z,1.23
2023-01-18T02:43:52.270Z,1.08
2023-01-18T02:46:39.279Z,0.60
2023-01-18T02:49:29.912Z,0.60
2023-01-18T02:52:41.908Z,0.95
2023-01-18T02:55:41.651Z,1.95
2023-01-18T02:58:31.112Z,4.85
2023-01-18T03:01:44.211Z,2.80
2023-01-18T03:04:39.128Z,1.08
2023-01-18T03:07:28.795Z,3.20
2023-01-18T03:10:15.453Z,1.45
2023-01-18T03:13:16.833Z,0.73
2023-01-18T03:16:21.022Z,1.42
2023-01-18T03:19:34.312Z,1.05
2023-01-18T03:22:40.045Z,3.70
2023-01-18T03:25:30.465Z,1.63
2023-01-18T03:28:45.701Z,0.80
2023-01-18T03:32:13.263Z,4.10
2023-01-18T03:35:11.886Z,1.17
2023-01-18T03:37:59.216Z,1.40
2023-01-18T03:40:44.595Z,3.05
2023-01-18T03:43:36.562Z,2.47
2023-01-18T03:46:26.294Z,3.38
2023-01-18T03:49:12.520Z,1.42
2023-01-18T03:52:37.704Z,3.70
2023-01-18T03:55:39.676Z,1.58
2023-01-18T03:58:35.259Z,1.65
2023-01-18T04:01:20.743Z,1.25
2023-01-18T04:04:06.425Z,8.90
2023-01-18T04:06:51.927Z,1.70
2023-01-18T04:09:37.313Z,4.03
2023-01-18T04:12:22.602Z,1.10
2023-01-18T04:15:08.556Z,0.93
2023-01-18T04:17:55.952Z,0.35
2023-01-18T04:20:41.527Z,3.30
2023-01-18T04:23:27.072Z,3.17
2023-01-18T04:26:15.392Z,4.88
2023-01-18T04:29:02.088Z,5.38
2023-01-18T04:31:47.359Z,2.40
2023-01-18T04:34:33.832Z,4.88
2023-01-18T04:37:19.141Z,1.80
2023-01-18T04:40:06.164Z,4.90
2023-01-18T04:42:53.475Z,4.63
2023-01-18T04:45:38.823Z,2.72
2023-01-18T04:48:24.846Z,4.30
2023-01-18T04:51:14.521Z,1.58
2023-01-18T04:54:00.136Z,5.63
2023-01-18T04:56:45.746Z,2.30
2023-01-18T04:59:31.415Z,4.97
2023-01-18T05:02:16.681Z,1.05
2023-01-18T05:05:02.137Z,5.93
2023-01-18T05:07:47.491Z,3.60
2023-01-18T05:10:33.803Z,5.68
2023-01-18T05:13:19.143Z,8.68
2023-01-18T05:16:06.302Z,1.40
2023-01-18T05:18:51.902Z,7.32
2023-01-18T05:21:37.382Z,3.60
2023-01-18T05:24:22.615Z,6.55
2023-01-18T05:27:08.006Z,4.43
2023-01-18T05:29:53.516Z,2.28
2023-01-18T05:32:39.179Z,0.90
2023-01-18T05:35:24.557Z,7.90
2023-01-18T05:38:09.923Z,7.78
2023-01-18T05:40:55.463Z,1.05
2023-01-18T05:43:41.361Z,2.38
2023-01-18T05:46:26.851Z,4.15
2023-01-18T05:49:12.336Z,4.47
2023-01-18T05:51:57.690Z,3.70
2023-01-18T05:54:43.170Z,0.60
2023-01-18T05:57:28.496Z,6.75
2023-01-18T06:00:14.112Z,1.83
2023-01-18T06:03:01.234Z,3.38
2023-01-18T06:05:48.030Z,6.65
2023-01-18T06:08:34.026Z,2.20
2023-01-18T06:11:19.675Z,3.05
2023-01-18T06:14:04.913Z,4.07
2023-01-18T06:16:50.378Z,4.65
2023-01-18T06:19:36.528Z,5.43
2023-01-18T06:22:22.402Z,3.22
2023-01-18T06:25:10.020Z,2.13
2023-01-18T06:27:55.243Z,2.80
2023-01-18T06:30:42.881Z,9.68
2023-01-18T06:33:28.518Z,6.30
2023-01-18T06:36:13.831Z,7.03
2023-01-18T06:38:59.046Z,0.65
2023-01-18T06:41:44.483Z,2.58
2023-01-18T06:44:29.911Z,1.30
2023-01-18T06:47:20.023Z,3.83
2023-01-18T06:50:05.777Z,2.42
2023-01-18T06:52:51.863Z,5.05
2023-01-18T06:55:37.281Z,4.40
2023-01-18T06:58:24.261Z,3.22
2023-01-18T07:01:09.622Z,2.65
2023-01-18T07:03:55.164Z,6.57
2023-01-18T07:06:40.733Z,5.55
2023-01-18T07:09:26.027Z,7.00
2023-01-18T07:12:11.540Z,1.60
2023-01-18T07:14:57.642Z,2.90
2023-01-18T07:17:45.111Z,4.68
2023-01-18T07:20:30.957Z,6.65
2023-01-18T07:23:16.537Z,1.85
2023-01-18T07:26:10.328Z,1.63
2023-01-18T07:28:56.509Z,2.10
2023-01-18T07:31:42.215Z,5.95
2023-01-18T07:34:27.596Z,1.55
2023-01-18T07:37:12.894Z,7.13
2023-01-18T07:39:58.253Z,7.32
2023-01-18T07:42:43.828Z,2.80
2023-01-18T07:45:30.170Z,1.60
2023-01-18T07:48:15.838Z,3.50
2023-01-18T07:51:06.690Z,8.98
2023-01-18T07:53:55.381Z,4.93
2023-01-18T07:56:41.004Z,4.38
2023-01-18T07:59:27.908Z,6.82
2023-01-18T08:02:14.589Z,12.25
2023-01-18T08:05:00.121Z,11.15
2023-01-18T08:07:45.431Z,4.55
2023-01-18T08:10:30.787Z,11.75
2023-01-18T08:13:16.062Z,12.30
2023-01-18T08:16:03.906Z,8.63
2023-01-18T08:18:50.309Z,5.35
2023-01-18T08:21:35.937Z,10.07
2023-01-18T08:24:21.355Z,6.30
2023-01-18T08:27:06.728Z,4.93
2023-01-18T08:29:52.227Z,4.20
2023-01-18T08:32:37.500Z,4.43
2023-01-18T08:35:27.803Z,4.13
2023-01-18T08:38:16.126Z,1.23
2023-01-18T08:41:03.182Z,0.95
2023-01-18T08:43:51.139Z,7.95
2023-01-18T08:46:37.113Z,0.60
2023-01-18T08:49:22.880Z,0.63
2023-01-18T08:52:11.019Z,1.75
2023-01-18T08:54:56.724Z,2.80
2023-01-18T08:57:42.301Z,1.95
2023-01-18T09:00:28.711Z,2.08
2023-01-18T09:03:14.050Z,2.05
2023-01-18T09:06:05.175Z,2.45
2023-01-18T09:08:51.201Z,2.80
2023-01-18T09:11:36.714Z,1.25
2023-01-18T09:14:22.118Z,1.30
2023-01-18T09:17:07.576Z,6.30
2023-01-18T09:19:54.530Z,3.08
2023-01-18T09:22:40.062Z,2.13
2023-01-18T09:25:25.674Z,6.20
2023-01-18T09:28:12.175Z,1.00
2023-01-18T09:31:05.021Z,2.60
2023-01-18T09:33:53.827Z,3.58
2023-01-18T09:36:40.519Z,2.10
2023-01-18T09:39:26.231Z,2.42
2023-01-18T09:42:36.396Z,4.60
2023-01-18T09:45:32.533Z,2.40
2023-01-18T09:48:29.388Z,4.13
2023-01-18T09:51:46.030Z,0.35
2023-01-18T09:54:46.941Z,4.43
2023-01-18T09:57:46.701Z,4.03
2023-01-18T10:00:36.853Z,2.38
2023-01-18T10:03:48.468Z,2.45
2023-01-18T10:06:59.147Z,1.10
2023-01-18T10:09:56.662Z,0.55
2023-01-18T10:12:42.221Z,1.70
2023-01-18T10:15:34.474Z,1.73
2023-01-18T10:18:20.085Z,2.67
2023-01-18T10:21:07.574Z,2.40
2023-01-18T10:24:12.381Z,1.90
2023-01-18T10:27:20.770Z,2.03
2023-01-18T10:30:25.875Z,4.35
2023-01-18T10:33:18.614Z,3.13
2023-01-18T10:36:16.132Z,5.32
2023-01-18T10:39:05.871Z,6.22
2023-01-18T10:41:51.442Z,0.77
2023-01-18T10:44:37.100Z,3.42
2023-01-18T10:47:23.424Z,6.22
2023-01-18T10:50:19.963Z,3.75
2023-01-18T10:53:24.072Z,4.75
2023-01-18T10:56:24.326Z,3.40
2023-01-18T10:59:25.256Z,5.22
2023-01-18T11:02:26.233Z,4.32
2023-01-18T11:05:32.873Z,0.40
2023-01-18T11:08:33.556Z,1.40
2023-01-18T11:11:50.040Z,2.60
2023-01-18T11:14:35.672Z,5.35
2023-01-18T11:17:21.143Z,2.10
2023-01-18T11:20:14.957Z,7.60
2023-01-18T11:23:01.914Z,3.90
2023-01-18T11:26:01.780Z,1.80
2023-01-18T11:29:02.408Z,3.10
2023-01-18T11:31:50.372Z,1.13
2023-01-18T11:34:39.421Z,3.70
2023-01-18T11:37:35.520Z,0.93
2023-01-18T11:40:21.769Z,0.98
2023-01-18T11:43:22.995Z,0.45
2023-01-18T11:46:31.746Z,6.90
2023-01-18T11:49:39.340Z,3.55
2023-01-18T11:52:51.361Z,2.95
2023-01-18T11:55:47.629Z,0.95
2023-01-18T11:58:35.658Z,1.88
2023-01-18T12:01:31.829Z,1.27
2023-01-18T12:04:38.685Z,0.90
2023-01-18T12:07:48.814Z,1.13
2023-01-18T12:10:43.644Z,3.97
2023-01-18T12:13:36.272Z,2.47
2023-01-18T12:16:57.509Z,0.80
2023-01-18T12:20:24.417Z,4.13
2023-01-18T12:23:25.184Z,3.38
2023-01-18T12:26:25.670Z,3.28
2023-01-18T12:29:39.024Z,3.60
2023-01-18T12:33:02.289Z,0.93
2023-01-18T12:36:23.597Z,3.03
2023-01-18T12:39:29.156Z,1.85
2023-01-18T12:42:36.535Z,16.17
2023-01-18T12:45:42.142Z,7.45
2023-01-18T12:48:36.302Z,3.35
2023-01-18T12:51:25.732Z,23.00
2023-01-18T12:54:30.713Z,13.70
2023-01-18T12:57:18.502Z,9.45
2023-01-18T13:00:16.348Z,4.90
2023-01-18T13:03:08.551Z,5.90
2023-01-18T13:05:58.061Z,8.32
2023-01-18T13:08:52.971Z,3.25
2023-01-18T13:11:43.308Z,10.50
2023-01-18T13:14:38.608Z,6.05
2023-01-18T13:17:37.909Z,5.60
2023-01-18T13:20:34.509Z,6.95
2023-01-18T13:23:23.279Z,2.88
2023-01-18T13:26:29.541Z,3.22
2023-01-18T13:29:30.435Z,7.50
2023-01-18T13:32:35.534Z,4.43
2023-01-18T13:35:33.275Z,3.58
2023-01-18T13:38:36.327Z,3.40
2023-01-18T13:41:29.384Z,3.33
2023-01-18T13:44:43.779Z,1.25
2023-01-18T13:47:46.007Z,2.55
2023-01-18T13:50:31.557Z,1.35
2023-01-18T13:53:17.151Z,0.55
2023-01-18T13:56:04.020Z,2.58
2023-01-18T13:59:03.220Z,3.35
2023-01-18T14:01:50.778Z,2.83
2023-01-18T14:04:36.358Z,3.53
2023-01-18T14:07:23.289Z,6.20
2023-01-18T14:10:46.590Z,3.65
2023-01-18T14:13:55.160Z,13.20
2023-01-18T14:16:53.793Z,13.45
2023-01-18T14:20:04.347Z,11.00
2023-01-18T14:23:08.301Z,3.88
2023-01-18T14:26:13.692Z,4.57
2023-01-18T14:29:04.485Z,10.00
2023-01-18T14:31:53.774Z,3.50
2023-01-18T14:34:42.975Z,3.83
2023-01-18T14:37:34.591Z,5.85
2023-01-18T14:40:26.452Z,1.77
2023-01-18T14:43:27.365Z,5.57
2023-01-18T14:46:27.148Z,6.55
2023-01-18T14:49:17.224Z,1.35
2023-01-18T14:52:04.170Z,5.30
2023-01-18T14:54:55.616Z,2.70
2023-01-18T14:57:41.391Z,1.45
2023-01-18T15:00:28.045Z,2.22
2023-01-18T15:03:33.679Z,2.97
2023-01-18T15:06:24.079Z,4.97
2023-01-18T15:09:10.959Z,1.90
2023-01-18T15:12:01.120Z,5.65
2023-01-18T15:14:49.343Z,6.43
2023-01-18T15:17:37.036Z,10.98
2023-01-18T15:20:22.341Z,7.68
2023-01-18T15:23:07.736Z,10.98
2023-01-18T15:25:54.568Z,3.75
2023-01-18T15:28:40.587Z,4.50
2023-01-18T15:31:25.864Z,3.90
2023-01-18T15:34:15.514Z,9.10
2023-01-18T15:37:04.567Z,7.38
2023-01-18T15:40:00.495Z,4.13
2023-01-18T15:42:59.127Z,5.72
2023-01-18T15:45:51.486Z,9.60
2023-01-18T15:48:49.808Z,6.53
2023-01-18T15:51:58.305Z,16.75
2023-01-18T15:54:43.933Z,5.80
2023-01-18T15:57:31.023Z,5.07
2023-01-18T16:00:51.721Z,5.35
2023-01-18T16:03:55.003Z,5.80
2023-01-18T16:06:40.803Z,6.90
2023-01-18T16:09:27.154Z,7.97
2023-01-18T16:12:33.564Z,7.68
2023-01-18T16:15:37.731Z,3.47
2023-01-18T16:18:23.083Z,6.43
2023-01-18T16:21:14.622Z,5.80
2023-01-18T16:24:00.312Z,4.07
2023-01-18T16:26:46.485Z,4.35
2023-01-18T16:29:40.245Z,5.95
2023-01-18T16:32:27.846Z,3.50
2023-01-18T16:35:16.561Z,4.95
2023-01-18T16:38:02.197Z,5.22
2023-01-18T16:40:49.909Z,6.93
2023-01-18T16:43:36.944Z,2.80
2023-01-18T16:46:23.085Z,4.07
2023-01-18T16:49:13.092Z,5.60
2023-01-18T16:51:58.851Z,6.75
2023-01-18T16:54:45.881Z,3.83
2023-01-18T16:57:32.902Z,4.95
2023-01-18T17:00:21.507Z,4.93
2023-01-18T17:03:07.198Z,2.70
2023-01-18T17:05:53.944Z,3.90
2023-01-18T17:08:39.611Z,11.48
2023-01-18T17:11:24.923Z,14.30
2023-01-18T17:14:10.242Z,7.70
2023-01-18T17:16:55.887Z,6.93
2023-01-18T17:19:41.528Z,4.78
2023-01-18T17:22:27.254Z,7.70
2023-01-18T17:25:13.145Z,4.45
2023-01-18T17:27:58.829Z,10.60
2023-01-18T17:30:46.808Z,12.05
2023-01-18T17:33:32.800Z,9.00
2023-01-18T17:36:18.153Z,9.40
2023-01-18T17:39:03.509Z,9.88
2023-01-18T17:41:48.991Z,7.95
2023-01-18T17:44:37.417Z,9.13
2023-01-18T17:47:23.143Z,12.13
2023-01-18T17:50:14.403Z,9.18
2023-01-18T17:52:59.904Z,12.00
2023-01-18T17:55:45.732Z,9.40
2023-01-18T17:58:30.907Z,9.07
2023-01-18T18:01:17.655Z,3.95
2023-01-18T18:04:03.250Z,4.95
2023-01-18T18:06:54.274Z,9.25
2023-01-18T18:09:40.865Z,8.77
2023-01-18T18:12:32.584Z,6.65
2023-01-18T18:15:22.338Z,4.63
2023-01-18T18:18:21.909Z,8.52
2023-01-18T18:21:08.335Z,6.75
2023-01-18T18:23:54.235Z,8.30
2023-01-18T18:26:40.122Z,9.18
2023-01-18T18:29:25.644Z,6.18
2023-01-18T18:32:11.937Z,8.07
2023-01-18T18:34:57.547Z,5.70
2023-01-18T18:37:43.195Z,14.88
2023-01-18T18:40:28.655Z,22.13
2023-01-18T18:43:14.034Z,18.52
2023-01-18T18:45:59.397Z,18.50
2023-01-18T18:48:44.709Z,20.95
2023-01-18T18:51:30.204Z,25.98
2023-01-18T18:54:16.059Z,24.38
2023-01-18T18:57:03.435Z,19.10
2023-01-18T18:59:49.081Z,14.43
2023-01-18T19:02:35.415Z,11.38
2023-01-18T19:05:20.702Z,14.52
2023-01-18T19:08:06.360Z,16.77
2023-01-18T19:10:52.220Z,12.05
2023-01-18T19:13:37.974Z,10.85
2023-01-18T19:16:23.157Z,13.27
2023-01-18T19:19:08.735Z,10.88
2023-01-18T19:21:54.384Z,10.52
2023-01-18T19:24:39.641Z,11.10
2023-01-18T19:27:25.074Z,19.02
2023-01-18T19:30:18.809Z,13.85
2023-01-18T19:33:04.839Z,11.75
2023-01-18T19:35:50.717Z,17.13
2023-01-18T19:38:45.785Z,10.15
2023-01-18T19:41:32.703Z,15.00
2023-01-18T19:44:18.274Z,18.85
2023-01-18T19:47:03.662Z,13.73
2023-01-18T19:49:49.182Z,18.50
2023-01-18T19:52:34.628Z,16.40
2023-01-18T19:55:21.772Z,19.55
2023-01-18T19:58:07.438Z,19.13
2023-01-18T20:00:52.846Z,11.80
2023-01-18T20:03:38.742Z,13.05
2023-01-18T20:06:24.615Z,18.63
2023-01-18T20:09:19.620Z,14.80
2023-01-18T20:12:05.851Z,22.63
2023-01-18T20:14:51.261Z,30.77
2023-01-18T20:17:37.842Z,14.45
2023-01-18T20:20:31.937Z,15.30
2023-01-18T20:23:18.195Z,12.35
2023-01-18T20:26:05.521Z,11.15
2023-01-18T20:28:55.994Z,13.25
2023-01-18T20:31:46.592Z,11.65
2023-01-18T20:34:36.616Z,10.65
2023-01-18T20:37:22.248Z,12.65
2023-01-18T20:40:08.656Z,12.95
2023-01-18T20:42:54.305Z,11.23
2023-01-18T20:45:40.869Z,16.95
2023-01-18T20:48:27.098Z,16.50
2023-01-18T20:51:13.149Z,29.48
2023-01-18T20:53:58.585Z,15.88
2023-01-18T20:56:44.119Z,8.20
2023-01-18T20:59:29.338Z,14.98
2023-01-18T21:02:14.787Z,11.68
2023-01-18T21:05:00.756Z,19.23
2023-01-18T21:07:46.531Z,15.30
2023-01-18T21:10:38.753Z,18.52
2023-01-18T21:13:24.853Z,13.95
2023-01-18T21:16:10.340Z,19.83
2023-01-18T21:18:59.030Z,16.80
2023-01-18T21:21:44.740Z,15.65
2023-01-18T21:24:30.268Z,11.25
2023-01-18T21:27:17.007Z,10.73
2023-01-18T21:30:02.597Z,13.48
2023-01-18T21:32:48.293Z,13.88
2023-01-18T21:35:34.011Z,13.40
2023-01-18T21:38:20.244Z,12.52
2023-01-18T21:41:24.635Z,18.63
2023-01-18T21:44:31.937Z,23.77
2023-01-18T21:47:17.801Z,17.92
2023-01-18T21:50:21.878Z,15.52
2023-01-18T21:53:35.181Z,15.65
2023-01-18T21:56:21.519Z,13.82
2023-01-18T21:59:07.040Z,13.98
2023-01-18T22:01:52.813Z,19.27
2023-01-18T22:04:56.810Z,22.45
2023-01-18T22:07:42.863Z,15.88
2023-01-18T22:10:28.486Z,12.98
2023-01-18T22:13:13.862Z,11.05
2023-01-18T22:16:04.254Z,11.45
2023-01-18T22:18:50.276Z,14.73
2023-01-18T22:21:35.822Z,13.63
2023-01-18T22:24:21.083Z,13.38
2023-01-18T22:27:07.842Z,9.60
2023-01-18T22:29:53.480Z,13.23
2023-01-18T22:32:38.679Z,9.80
2023-01-18T22:35:24.048Z,15.43
2023-01-18T22:38:11.203Z,12.35
2023-01-18T22:41:11.786Z,14.70
2023-01-18T22:43:57.446Z,9.50
2023-01-18T22:46:43.575Z,7.47
2023-01-18T22:49:29.331Z,7.35
2023-01-18T22:52:15.204Z,14.45
2023-01-18T22:55:00.917Z,6.75
2023-01-18T22:57:46.335Z,7.35
2023-01-18T23:00:32.162Z,8.57
2023-01-18T23:03:18.246Z,6.18
2023-01-18T23:06:03.968Z,8.05
2023-01-18T23:08:49.717Z,7.75
2023-01-18T23:11:35.733Z,5.65
2023-01-18T23:14:40.959Z,7.00
2023-01-18T23:17:38.659Z,7.55
2023-01-18T23:20:23.809Z,6.57
2023-01-18T23:23:09.125Z,11.65
2023-01-18T23:25:58.848Z,9.45
2023-01-18T23:28:45.096Z,5.97
2023-01-18T23:31:30.539Z,13.20
2023-01-18T23:34:16.417Z,8.00
2023-01-18T23:37:01.538Z,9.90
2023-01-18T23:40:05.525Z,11.77
2023-01-18T23:43:12.097Z,7.90
2023-01-18T23:46:16.237Z,5.60
2023-01-18T23:49:20.308Z,8.13
2023-01-18T23:52:24.261Z,5.32
2023-01-18T23:55:10.243Z,6.43
2023-01-18T23:57:55.918Z,9.02
